sensor_id;sensor_type;location;lat;lon;timestamp;temperature;humidity
3678;DHT22;1855;50.934;6.958;2023-03-14T00:02:20;10.80;95.50
3678;DHT22;1855;50.934;6.958;2023-03-14T00:04:48;10.80;95.50
3678;DHT22;1855;50.934;6.958;2023-03-14T00:07:15;10.70;95.80
3678;DHT22;1855;50.934;6.958;2023-03-14T00:09:42;10.60;95.90
3678;DHT22;1855;50.934;6.958;2023-03-14T00:12:09;10.70;96.00
3678;DHT22;1855;50.934;6.958;2023-03-14T00:14:36;10.60;95.80
3678;DHT22;1855;50.934;6.958;2023-03-14T00:17:02;10.60;95.80
3678;DHT22;1855;50.934;6.958;2023-03-14T00:19:29;10.80;95.50
3678;DHT22;1855;50.934;6.958;2023-03-14T00:21:57;10.90;95.10
3678;DHT22;1855;50.934;6.958;2023-03-14T00:24:24;11.00;94.40
3678;DHT22;1855;50.934;6.958;2023-03-14T00:26:51;11.10;94.20
3678;DHT22;1855;50.934;6.958;2023-03-14T00:29:17;11.20;94.00
3678;DHT22;1855;50.934;6.958;2023-03-14T00:31:44;11.20;93.60
3678;DHT22;1855;50.934;6.958;2023-03-14T00:34:11;11.30;93.40
3678;DHT22;1855;50.934;6.958;2023-03-14T00:36:38;11.40;92.90
3678;DHT22;1855;50.934;6.958;2023-03-14T00:39:06;11.40;92.70
3678;DHT22;1855;50.934;6.958;2023-03-14T00:41:33;11.40;92.40
3678;DHT22;1855;50.934;6.958;2023-03-14T00:43:59;11.40;92.70
3678;DHT22;1855;50.934;6.958;2023-03-14T00:46:26;11.50;92.40
3678;DHT22;1855;50.934;6.958;2023-03-14T00:48:53;11.50;92.50
3678;DHT22;1855;50.934;6.958;2023-03-14T00:51:20;11.50;91.90
3678;DHT22;1855;50.934;6.958;2023-03-14T00:53:46;11.60;91.60
3678;DHT22;1855;50.934;6.958;2023-03-14T00:56:15;11.70;91.30
3678;DHT22;1855;50.934;6.958;2023-03-14T00:58:42;11.70;91.00
3678;DHT22;1855;50.934;6.958;2023-03-14T01:01:10;11.70;90.90
3678;DHT22;1855;50.934;6.958;2023-03-14T01:03:37;11.80;90.80
3678;DHT22;1855;50.934;6.958;2023-03-14T01:06:12;11.80;90.60
3678;DHT22;1855;50.934;6.958;2023-03-14T01:08:40;11.80;90.70
3678;DHT22;1855;50.934;6.958;2023-03-14T01:11:08;11.80;91.00
3678;DHT22;1855;50.934;6.958;2023-03-14T01:13:37;11.80;91.30
3678;DHT22;1855;50.934;6.958;2023-03-14T01:16:06;11.80;92.40
3678;DHT22;1855;50.934;6.958;2023-03-14T01:18:33;11.70;93.20
3678;DHT22;1855;50.934;6.958;2023-03-14T01:21:01;11.50;95.00
3678;DHT22;1855;50.934;6.958;2023-03-14T01:23:28;11.20;98.90
3678;DHT22;1855;50.934;6.958;2023-03-14T01:25:54;10.80;99.90
3678;DHT22;1855;50.934;6.958;2023-03-14T01:28:21;10.30;99.90
3678;DHT22;1855;50.934;6.958;2023-03-14T01:30:49;9.90;99.90
3678;DHT22;1855;50.934;6.958;2023-03-14T01:33:16;9.70;99.90
3678;DHT22;1855;50.934;6.958;2023-03-14T01:35:43;9.50;99.90
3678;DHT22;1855;50.934;6.958;2023-03-14T01:38:09;9.50;99.90
3678;DHT22;1855;50.934;6.958;2023-03-14T01:40:42;9.40;99.90
3678;DHT22;1855;50.934;6.958;2023-03-14T01:43:14;9.40;99.90
3678;DHT22;1855;50.934;6.958;2023-03-14T01:49:00;9.20;99.90
3678;DHT22;1855;50.934;6.958;2023-03-14T01:51:32;9.20;99.90
3678;DHT22;1855;50.934;6.958;2023-03-14T01:54:04;9.20;99.90
3678;DHT22;1855;50.934;6.958;2023-03-14T01:56:33;9.20;99.90
3678;DHT22;1855;50.934;6.958;2023-03-14T01:59:01;9.10;99.90
3678;DHT22;1855;50.934;6.958;2023-03-14T02:01:30;9.10;99.90
3678;DHT22;1855;50.934;6.958;2023-03-14T02:04:01;9.00;99.90
3678;DHT22;1855;50.934;6.958;2023-03-14T02:06:34;9.00;99.90
3678;DHT22;1855;50.934;6.958;2023-03-14T02:09:03;8.90;99.90
3678;DHT22;1855;50.934;6.958;2023-03-14T02:11:30;8.80;99.90
3678;DHT22;1855;50.934;6.958;2023-03-14T02:13:57;8.80;99.90
3678;DHT22;1855;50.934;6.958;2023-03-14T02:16:25;8.80;99.90
3678;DHT22;1855;50.934;6.958;2023-03-14T02:18:52;8.80;99.90
3678;DHT22;1855;50.934;6.958;2023-03-14T02:21:24;8.80;99.90
3678;DHT22;1855;50.934;6.958;2023-03-14T02:24:02;8.80;99.90
3678;DHT22;1855;50.934;6.958;2023-03-14T02:26:35;8.70;99.90
3678;DHT22;1855;50.934;6.958;2023-03-14T02:29:04;8.70;99.90
3678;DHT22;1855;50.934;6.958;2023-03-14T02:31:32;8.70;99.90
3678;DHT22;1855;50.934;6.958;2023-03-14T02:34:00;8.70;99.90
3678;DHT22;1855;50.934;6.958;2023-03-14T02:36:27;8.80;99.90
3678;DHT22;1855;50.934;6.958;2023-03-14T02:39:03;8.80;99.90
3678;DHT22;1855;50.934;6.958;2023-03-14T02:41:31;8.80;99.90
3678;DHT22;1855;50.934;6.958;2023-03-14T02:43:58;8.70;99.90
3678;DHT22;1855;50.934;6.958;2023-03-14T02:46:26;8.70;99.90
3678;DHT22;1855;50.934;6.958;2023-03-14T02:48:55;8.60;99.90
3678;DHT22;1855;50.934;6.958;2023-03-14T02:51:24;8.50;99.90
3678;DHT22;1855;50.934;6.958;2023-03-14T02:53:52;8.60;99.90
3678;DHT22;1855;50.934;6.958;2023-03-14T02:56:19;8.60;99.90
3678;DHT22;1855;50.934;6.958;2023-03-14T02:58:46;8.60;99.90
3678;DHT22;1855;50.934;6.958;2023-03-14T03:01:13;8.50;99.90
3678;DHT22;1855;50.934;6.958;2023-03-14T03:03:41;8.40;99.90
3678;DHT22;1855;50.934;6.958;2023-03-14T03:06:08;8.40;99.90
3678;DHT22;1855;50.934;6.958;2023-03-14T03:08:34;8.40;99.90
3678;DHT22;1855;50.934;6.958;2023-03-14T03:11:02;8.50;99.90
3678;DHT22;1855;50.934;6.958;2023-03-14T03:13:29;8.50;99.90
3678;DHT22;1855;50.934;6.958;2023-03-14T03:15:56;8.60;99.90
3678;DHT22;1855;50.934;6.958;2023-03-14T03:18:23;8.60;99.90
3678;DHT22;1855;50.934;6.958;2023-03-14T03:20:51;8.70;99.90
3678;DHT22;1855;50.934;6.958;2023-03-14T03:23:18;8.70;99.90
3678;DHT22;1855;50.934;6.958;2023-03-14T03:25:48;8.70;99.90
3678;DHT22;1855;50.934;6.958;2023-03-14T03:28:15;8.80;99.90
3678;DHT22;1855;50.934;6.958;2023-03-14T03:30:42;8.80;99.90
3678;DHT22;1855;50.934;6.958;2023-03-14T03:33:09;8.80;99.90
3678;DHT22;1855;50.934;6.958;2023-03-14T03:35:42;8.80;99.90
3678;DHT22;1855;50.934;6.958;2023-03-14T03:38:10;8.90;99.90
3678;DHT22;1855;50.934;6.958;2023-03-14T03:40:38;9.00;99.90
3678;DHT22;1855;50.934;6.958;2023-03-14T03:43:05;9.00;99.90
3678;DHT22;1855;50.934;6.958;2023-03-14T03:45:31;9.00;99.90
3678;DHT22;1855;50.934;6.958;2023-03-14T03:47:58;9.10;99.90
3678;DHT22;1855;50.934;6.958;2023-03-14T03:50:25;9.10;99.90
3678;DHT22;1855;50.934;6.958;2023-03-14T03:52:52;9.20;99.90
3678;DHT22;1855;50.934;6.958;2023-03-14T03:55:20;9.30;99.90
3678;DHT22;1855;50.934;6.958;2023-03-14T03:57:46;9.30;99.90
3678;DHT22;1855;50.934;6.958;2023-03-14T04:00:14;9.40;99.90
3678;DHT22;1855;50.934;6.958;2023-03-14T04:02:40;9.50;99.90
3678;DHT22;1855;50.934;6.958;2023-03-14T04:05:08;9.60;99.90
3678;DHT22;1855;50.934;6.958;2023-03-14T04:07:34;9.50;99.90
3678;DHT22;1855;50.934;6.958;2023-03-14T04:10:01;9.60;99.90
3678;DHT22;1855;50.934;6.958;2023-03-14T04:12:29;9.60;99.90
3678;DHT22;1855;50.934;6.958;2023-03-14T04:14:56;9.60;99.90
3678;DHT22;1855;50.934;6.958;2023-03-14T04:17:23;9.50;99.90
3678;DHT22;1855;50.934;6.958;2023-03-14T04:19:50;9.50;99.90
3678;DHT22;1855;50.934;6.958;2023-03-14T04:22:19;9.40;99.90
3678;DHT22;1855;50.934;6.958;2023-03-14T04:24:46;9.30;99.90
3678;DHT22;1855;50.934;6.958;2023-03-14T04:27:12;9.30;99.90
3678;DHT22;1855;50.934;6.958;2023-03-14T04:29:41;9.20;99.90
3678;DHT22;1855;50.934;6.958;2023-03-14T04:32:08;9.20;99.90
3678;DHT22;1855;50.934;6.958;2023-03-14T04:34:35;9.20;99.90
3678;DHT22;1855;50.934;6.958;2023-03-14T04:37:01;9.20;99.90
3678;DHT22;1855;50.934;6.958;2023-03-14T04:39:28;9.20;99.90
3678;DHT22;1855;50.934;6.958;2023-03-14T04:41:55;9.20;99.90
3678;DHT22;1855;50.934;6.958;2023-03-14T04:44:22;9.20;99.90
3678;DHT22;1855;50.934;6.958;2023-03-14T04:46:50;9.20;99.90
3678;DHT22;1855;50.934;6.958;2023-03-14T04:49:16;9.20;99.90
3678;DHT22;1855;50.934;6.958;2023-03-14T04:51:43;9.20;99.90
3678;DHT22;1855;50.934;6.958;2023-03-14T04:54:10;9.20;99.90
3678;DHT22;1855;50.934;6.958;2023-03-14T04:56:37;9.10;99.90
3678;DHT22;1855;50.934;6.958;2023-03-14T04:59:04;9.10;99.90
3678;DHT22;1855;50.934;6.958;2023-03-14T05:01:30;9.10;99.90
3678;DHT22;1855;50.934;6.958;2023-03-14T05:03:59;9.10;99.90
3678;DHT22;1855;50.934;6.958;2023-03-14T05:06:25;9.10;99.90
3678;DHT22;1855;50.934;6.958;2023-03-14T05:08:52;9.00;99.90
3678;DHT22;1855;50.934;6.958;2023-03-14T05:11:19;9.00;99.90
3678;DHT22;1855;50.934;6.958;2023-03-14T05:13:46;9.10;99.90
3678;DHT22;1855;50.934;6.958;2023-03-14T05:16:12;9.10;99.90
3678;DHT22;1855;50.934;6.958;2023-03-14T05:18:39;9.10;99.90
3678;DHT22;1855;50.934;6.958;2023-03-14T05:21:07;9.10;99.90
3678;DHT22;1855;50.934;6.958;2023-03-14T05:23:34;9.20;99.90
3678;DHT22;1855;50.934;6.958;2023-03-14T05:26:01;9.20;99.90
3678;DHT22;1855;50.934;6.958;2023-03-14T05:28:30;9.20;99.90
3678;DHT22;1855;50.934;6.958;2023-03-14T05:30:57;9.30;99.90
3678;DHT22;1855;50.934;6.958;2023-03-14T05:33:23;9.30;99.90
3678;DHT22;1855;50.934;6.958;2023-03-14T05:35:50;9.30;99.90
3678;DHT22;1855;50.934;6.958;2023-03-14T05:38:18;9.30;99.90
3678;DHT22;1855;50.934;6.958;2023-03-14T05:40:45;9.30;99.90
3678;DHT22;1855;50.934;6.958;2023-03-14T05:43:12;9.30;99.90
3678;DHT22;1855;50.934;6.958;2023-03-14T05:45:40;9.30;99.90
3678;DHT22;1855;50.934;6.958;2023-03-14T05:48:07;9.30;99.90
3678;DHT22;1855;50.934;6.958;2023-03-14T05:50:34;9.30;99.90
3678;DHT22;1855;50.934;6.958;2023-03-14T05:53:01;9.40;99.90
3678;DHT22;1855;50.934;6.958;2023-03-14T05:55:29;9.40;99.90
3678;DHT22;1855;50.934;6.958;2023-03-14T05:57:55;9.40;99.90
3678;DHT22;1855;50.934;6.958;2023-03-14T06:00:22;9.40;99.90
3678;DHT22;1855;50.934;6.958;2023-03-14T06:02:49;9.50;99.90
3678;DHT22;1855;50.934;6.958;2023-03-14T06:05:16;9.50;99.90
3678;DHT22;1855;50.934;6.958;2023-03-14T06:07:43;9.50;99.90
3678;DHT22;1855;50.934;6.958;2023-03-14T06:10:10;9.50;99.90
3678;DHT22;1855;50.934;6.958;2023-03-14T06:12:38;9.40;99.90
3678;DHT22;1855;50.934;6.958;2023-03-14T06:15:06;9.30;99.90
3678;DHT22;1855;50.934;6.958;2023-03-14T06:17:33;9.30;99.90
3678;DHT22;1855;50.934;6.958;2023-03-14T06:20:00;9.30;99.90
3678;DHT22;1855;50.934;6.958;2023-03-14T06:22:27;9.30;99.90
3678;DHT22;1855;50.934;6.958;2023-03-14T06:24:53;9.30;99.90
3678;DHT22;1855;50.934;6.958;2023-03-14T06:27:20;9.30;99.90
3678;DHT22;1855;50.934;6.958;2023-03-14T06:29:48;9.30;99.90
3678;DHT22;1855;50.934;6.958;2023-03-14T06:32:15;9.30;99.90
3678;DHT22;1855;50.934;6.958;2023-03-14T06:34:43;9.40;99.90
3678;DHT22;1855;50.934;6.958;2023-03-14T06:37:10;9.40;99.90
3678;DHT22;1855;50.934;6.958;2023-03-14T06:39:37;9.50;99.90
3678;DHT22;1855;50.934;6.958;2023-03-14T06:42:04;9.50;99.90
3678;DHT22;1855;50.934;6.958;2023-03-14T06:44:31;9.60;99.90
3678;DHT22;1855;50.934;6.958;2023-03-14T06:46:59;9.70;99.90
3678;DHT22;1855;50.934;6.958;2023-03-14T06:49:26;9.70;99.90
3678;DHT22;1855;50.934;6.958;2023-03-14T06:51:53;9.80;99.90
3678;DHT22;1855;50.934;6.958;2023-03-14T06:54:19;9.80;99.90
3678;DHT22;1855;50.934;6.958;2023-03-14T06:56:46;9.90;99.90
3678;DHT22;1855;50.934;6.958;2023-03-14T06:59:13;9.90;99.90
3678;DHT22;1855;50.934;6.958;2023-03-14T07:01:40;10.00;99.90
3678;DHT22;1855;50.934;6.958;2023-03-14T07:04:08;10.00;99.90
3678;DHT22;1855;50.934;6.958;2023-03-14T07:06:35;10.10;99.90
3678;DHT22;1855;50.934;6.958;2023-03-14T07:09:02;10.20;99.90
3678;DHT22;1855;50.934;6.958;2023-03-14T07:11:29;10.20;99.90
3678;DHT22;1855;50.934;6.958;2023-03-14T07:13:56;10.20;99.90
3678;DHT22;1855;50.934;6.958;2023-03-14T07:16:23;10.30;99.90
3678;DHT22;1855;50.934;6.958;2023-03-14T07:18:49;10.40;99.90
3678;DHT22;1855;50.934;6.958;2023-03-14T07:21:18;10.50;99.90
3678;DHT22;1855;50.934;6.958;2023-03-14T07:23:45;10.60;99.90
3678;DHT22;1855;50.934;6.958;2023-03-14T07:26:12;10.60;99.90
3678;DHT22;1855;50.934;6.958;2023-03-14T07:28:39;10.70;99.90
3678;DHT22;1855;50.934;6.958;2023-03-14T07:31:06;10.70;99.90
3678;DHT22;1855;50.934;6.958;2023-03-14T07:33:33;10.80;99.90
3678;DHT22;1855;50.934;6.958;2023-03-14T07:36:00;10.80;99.90
3678;DHT22;1855;50.934;6.958;2023-03-14T07:38:28;10.90;99.90
3678;DHT22;1855;50.934;6.958;2023-03-14T07:40:58;11.00;99.90
3678;DHT22;1855;50.934;6.958;2023-03-14T07:43:25;11.10;99.90
3678;DHT22;1855;50.934;6.958;2023-03-14T07:45:52;11.20;99.90
3678;DHT22;1855;50.934;6.958;2023-03-14T07:48:19;11.30;99.90
3678;DHT22;1855;50.934;6.958;2023-03-14T07:50:48;11.40;99.90
3678;DHT22;1855;50.934;6.958;2023-03-14T07:53:15;11.50;99.90
3678;DHT22;1855;50.934;6.958;2023-03-14T07:55:43;11.60;99.90
3678;DHT22;1855;50.934;6.958;2023-03-14T07:58:11;11.60;99.70
3678;DHT22;1855;50.934;6.958;2023-03-14T08:00:38;11.70;99.80
3678;DHT22;1855;50.934;6.958;2023-03-14T08:03:05;11.70;99.80
3678;DHT22;1855;50.934;6.958;2023-03-14T08:05:34;11.70;99.70
3678;DHT22;1855;50.934;6.958;2023-03-14T08:08:01;11.70;99.70
3678;DHT22;1855;50.934;6.958;2023-03-14T08:10:28;11.70;99.30
3678;DHT22;1855;50.934;6.958;2023-03-14T08:12:59;11.60;99.90
3678;DHT22;1855;50.934;6.958;2023-03-14T08:15:28;11.60;99.40
3678;DHT22;1855;50.934;6.958;2023-03-14T08:17:55;11.60;99.60
3678;DHT22;1855;50.934;6.958;2023-03-14T08:20:24;11.60;99.80
3678;DHT22;1855;50.934;6.958;2023-03-14T08:22:52;11.60;99.90
3678;DHT22;1855;50.934;6.958;2023-03-14T08:25:18;11.70;99.70
3678;DHT22;1855;50.934;6.958;2023-03-14T08:27:45;11.70;99.90
3678;DHT22;1855;50.934;6.958;2023-03-14T08:30:15;11.80;99.20
3678;DHT22;1855;50.934;6.958;2023-03-14T08:32:42;11.90;99.20
3678;DHT22;1855;50.934;6.958;2023-03-14T08:35:10;12.00;98.40
3678;DHT22;1855;50.934;6.958;2023-03-14T08:37:36;12.00;99.20
3678;DHT22;1855;50.934;6.958;2023-03-14T08:40:04;11.90;99.90
3678;DHT22;1855;50.934;6.958;2023-03-14T08:42:33;11.80;99.90
3678;DHT22;1855;50.934;6.958;2023-03-14T08:45:00;11.50;99.90
3678;DHT22;1855;50.934;6.958;2023-03-14T08:47:28;11.40;99.90
3678;DHT22;1855;50.934;6.958;2023-03-14T08:49:55;11.30;99.90
3678;DHT22;1855;50.934;6.958;2023-03-14T08:52:22;11.30;99.90
3678;DHT22;1855;50.934;6.958;2023-03-14T08:54:48;11.30;99.90
3678;DHT22;1855;50.934;6.958;2023-03-14T08:57:15;11.40;99.90
3678;DHT22;1855;50.934;6.958;2023-03-14T08:59:42;11.50;99.90
3678;DHT22;1855;50.934;6.958;2023-03-14T09:02:10;11.50;99.90
3678;DHT22;1855;50.934;6.958;2023-03-14T09:04:39;11.30;99.90
3678;DHT22;1855;50.934;6.958;2023-03-14T09:07:06;11.00;99.90
3678;DHT22;1855;50.934;6.958;2023-03-14T09:09:33;10.80;99.90
3678;DHT22;1855;50.934;6.958;2023-03-14T09:12:00;10.60;99.90
3678;DHT22;1855;50.934;6.958;2023-03-14T09:14:27;10.40;99.90
3678;DHT22;1855;50.934;6.958;2023-03-14T09:16:54;10.30;99.90
3678;DHT22;1855;50.934;6.958;2023-03-14T09:19:21;10.30;99.90
3678;DHT22;1855;50.934;6.958;2023-03-14T09:21:49;10.30;99.90
3678;DHT22;1855;50.934;6.958;2023-03-14T09:24:22;10.30;99.90
3678;DHT22;1855;50.934;6.958;2023-03-14T09:26:49;10.30;99.90
3678;DHT22;1855;50.934;6.958;2023-03-14T09:29:15;10.30;99.90
3678;DHT22;1855;50.934;6.958;2023-03-14T09:31:42;10.30;99.90
3678;DHT22;1855;50.934;6.958;2023-03-14T09:34:09;10.30;99.90
3678;DHT22;1855;50.934;6.958;2023-03-14T09:36:36;10.30;99.90
3678;DHT22;1855;50.934;6.958;2023-03-14T09:39:12;10.30;99.90
3678;DHT22;1855;50.934;6.958;2023-03-14T09:41:45;10.20;99.90
3678;DHT22;1855;50.934;6.958;2023-03-14T09:44:15;9.90;99.90
3678;DHT22;1855;50.934;6.958;2023-03-14T09:46:44;9.30;99.90
3678;DHT22;1855;50.934;6.958;2023-03-14T09:49:19;8.80;99.90
3678;DHT22;1855;50.934;6.958;2023-03-14T09:51:49;8.50;99.90
3678;DHT22;1855;50.934;6.958;2023-03-14T09:54:28;8.40;99.90
3678;DHT22;1855;50.934;6.958;2023-03-14T09:56:56;8.20;99.90
3678;DHT22;1855;50.934;6.958;2023-03-14T09:59:23;8.10;99.90
3678;DHT22;1855;50.934;6.958;2023-03-14T10:01:52;8.00;99.90
3678;DHT22;1855;50.934;6.958;2023-03-14T10:04:22;7.90;99.90
3678;DHT22;1855;50.934;6.958;2023-03-14T10:06:49;7.90;99.90
3678;DHT22;1855;50.934;6.958;2023-03-14T10:09:21;7.90;99.90
3678;DHT22;1855;50.934;6.958;2023-03-14T10:11:53;7.90;99.90
3678;DHT22;1855;50.934;6.958;2023-03-14T10:14:30;7.90;99.90
3678;DHT22;1855;50.934;6.958;2023-03-14T10:17:05;7.80;99.90
3678;DHT22;1855;50.934;6.958;2023-03-14T10:19:33;7.80;99.90
3678;DHT22;1855;50.934;6.958;2023-03-14T10:22:02;7.70;99.90
3678;DHT22;1855;50.934;6.958;2023-03-14T10:24:32;7.60;99.90
3678;DHT22;1855;50.934;6.958;2023-03-14T10:27:01;7.60;99.90
3678;DHT22;1855;50.934;6.958;2023-03-14T10:29:29;7.50;99.90
3678;DHT22;1855;50.934;6.958;2023-03-14T10:31:59;7.50;99.90
3678;DHT22;1855;50.934;6.958;2023-03-14T10:34:28;7.40;99.90
3678;DHT22;1855;50.934;6.958;2023-03-14T10:36:57;7.40;99.90
3678;DHT22;1855;50.934;6.958;2023-03-14T10:39:35;7.40;99.90
3678;DHT22;1855;50.934;6.958;2023-03-14T10:42:10;7.40;99.90
3678;DHT22;1855;50.934;6.958;2023-03-14T10:44:38;7.30;99.90
3678;DHT22;1855;50.934;6.958;2023-03-14T10:47:06;7.30;99.90
3678;DHT22;1855;50.934;6.958;2023-03-14T10:49:34;7.30;99.90
3678;DHT22;1855;50.934;6.958;2023-03-14T10:52:13;7.30;99.90
3678;DHT22;1855;50.934;6.958;2023-03-14T10:54:46;7.40;99.90
3678;DHT22;1855;50.934;6.958;2023-03-14T10:57:13;7.40;99.90
3678;DHT22;1855;50.934;6.958;2023-03-14T10:59:42;7.50;99.90
3678;DHT22;1855;50.934;6.958;2023-03-14T11:02:21;7.50;99.90
3678;DHT22;1855;50.934;6.958;2023-03-14T11:05:02;7.50;99.90
3678;DHT22;1855;50.934;6.958;2023-03-14T11:07:32;7.50;99.90
3678;DHT22;1855;50.934;6.958;2023-03-14T11:10:11;7.60;99.90
3678;DHT22;1855;50.934;6.958;2023-03-14T11:12:51;7.60;99.90
3678;DHT22;1855;50.934;6.958;2023-03-14T11:15:24;7.60;99.90
3678;DHT22;1855;50.934;6.958;2023-03-14T11:18:10;7.70;99.90
3678;DHT22;1855;50.934;6.958;2023-03-14T11:20:42;7.80;99.90
3678;DHT22;1855;50.934;6.958;2023-03-14T11:23:14;8.10;99.90
3678;DHT22;1855;50.934;6.958;2023-03-14T11:25:48;8.60;99.90
3678;DHT22;1855;50.934;6.958;2023-03-14T11:28:26;8.90;99.90
3678;DHT22;1855;50.934;6.958;2023-03-14T11:31:00;9.00;99.90
3678;DHT22;1855;50.934;6.958;2023-03-14T11:33:44;9.00;99.90
3678;DHT22;1855;50.934;6.958;2023-03-14T11:36:20;9.20;99.90
3678;DHT22;1855;50.934;6.958;2023-03-14T11:38:49;9.50;99.90
3678;DHT22;1855;50.934;6.958;2023-03-14T11:41:20;9.50;99.90
3678;DHT22;1855;50.934;6.958;2023-03-14T11:43:53;9.50;99.90
3678;DHT22;1855;50.934;6.958;2023-03-14T11:46:23;9.20;99.90
3678;DHT22;1855;50.934;6.958;2023-03-14T11:48:59;8.60;99.90
3678;DHT22;1855;50.934;6.958;2023-03-14T11:51:30;7.90;99.90
3678;DHT22;1855;50.934;6.958;2023-03-14T11:54:03;7.40;99.90
3678;DHT22;1855;50.934;6.958;2023-03-14T11:56:41;7.10;99.90
3678;DHT22;1855;50.934;6.958;2023-03-14T11:59:15;6.90;99.90
3678;DHT22;1855;50.934;6.958;2023-03-14T12:01:53;6.90;99.90
3678;DHT22;1855;50.934;6.958;2023-03-14T12:04:40;6.90;99.90
3678;DHT22;1855;50.934;6.958;2023-03-14T12:07:17;6.80;99.90
3678;DHT22;1855;50.934;6.958;2023-03-14T12:09:45;6.90;99.90
3678;DHT22;1855;50.934;6.958;2023-03-14T12:12:16;7.10;99.90
3678;DHT22;1855;50.934;6.958;2023-03-14T12:14:46;7.20;99.90
3678;DHT22;1855;50.934;6.958;2023-03-14T12:17:21;7.30;99.90
3678;DHT22;1855;50.934;6.958;2023-03-14T12:19:51;7.30;99.90
3678;DHT22;1855;50.934;6.958;2023-03-14T12:22:30;7.40;99.90
3678;DHT22;1855;50.934;6.958;2023-03-14T12:25:12;7.50;99.90
3678;DHT22;1855;50.934;6.958;2023-03-14T12:28:02;7.60;99.90
3678;DHT22;1855;50.934;6.958;2023-03-14T12:30:32;7.60;99.90
3678;DHT22;1855;50.934;6.958;2023-03-14T12:33:26;7.50;99.90
3678;DHT22;1855;50.934;6.958;2023-03-14T12:36:11;7.60;99.90
3678;DHT22;1855;50.934;6.958;2023-03-14T12:39:19;7.50;99.90
3678;DHT22;1855;50.934;6.958;2023-03-14T12:41:51;7.60;99.90
3678;DHT22;1855;50.934;6.958;2023-03-14T12:47:47;7.60;99.90
3678;DHT22;1855;50.934;6.958;2023-03-14T12:50:27;7.60;99.90
3678;DHT22;1855;50.934;6.958;2023-03-14T12:55:50;7.60;99.90
3678;DHT22;1855;50.934;6.958;2023-03-14T12:58:26;7.50;99.90
3678;DHT22;1855;50.934;6.958;2023-03-14T13:01:00;7.40;99.90
3678;DHT22;1855;50.934;6.958;2023-03-14T13:03:39;7.30;99.90
3678;DHT22;1855;50.934;6.958;2023-03-14T13:06:09;7.30;99.90
3678;DHT22;1855;50.934;6.958;2023-03-14T13:08:39;7.30;99.90
3678;DHT22;1855;50.934;6.958;2023-03-14T13:11:09;7.30;99.90
3678;DHT22;1855;50.934;6.958;2023-03-14T13:13:41;7.10;99.90
3678;DHT22;1855;50.934;6.958;2023-03-14T13:16:12;7.00;99.90
3678;DHT22;1855;50.934;6.958;2023-03-14T13:18:43;7.10;99.90
3678;DHT22;1855;50.934;6.958;2023-03-14T13:21:14;7.00;99.90
3678;DHT22;1855;50.934;6.958;2023-03-14T13:23:54;7.10;99.90
3678;DHT22;1855;50.934;6.958;2023-03-14T13:26:21;7.30;99.90
3678;DHT22;1855;50.934;6.958;2023-03-14T13:28:49;7.40;99.90
3678;DHT22;1855;50.934;6.958;2023-03-14T13:31:21;7.40;99.90
3678;DHT22;1855;50.934;6.958;2023-03-14T13:33:58;7.50;99.90
3678;DHT22;1855;50.934;6.958;2023-03-14T13:36:25;7.70;99.90
3678;DHT22;1855;50.934;6.958;2023-03-14T13:38:56;7.90;99.90
3678;DHT22;1855;50.934;6.958;2023-03-14T13:41:24;8.00;99.90
3678;DHT22;1855;50.934;6.958;2023-03-14T13:43:51;8.10;99.90
3678;DHT22;1855;50.934;6.958;2023-03-14T13:46:20;8.10;99.90
3678;DHT22;1855;50.934;6.958;2023-03-14T13:48:49;8.00;99.90
3678;DHT22;1855;50.934;6.958;2023-03-14T13:51:19;7.90;99.90
3678;DHT22;1855;50.934;6.958;2023-03-14T13:53:48;7.80;99.90
3678;DHT22;1855;50.934;6.958;2023-03-14T13:56:16;7.70;99.90
3678;DHT22;1855;50.934;6.958;2023-03-14T13:58:43;7.70;99.90
3678;DHT22;1855;50.934;6.958;2023-03-14T14:01:14;7.70;99.90
3678;DHT22;1855;50.934;6.958;2023-03-14T14:03:43;7.90;99.90
3678;DHT22;1855;50.934;6.958;2023-03-14T14:06:21;8.10;99.90
3678;DHT22;1855;50.934;6.958;2023-03-14T14:08:49;8.10;99.90
3678;DHT22;1855;50.934;6.958;2023-03-14T14:11:28;8.30;99.90
3678;DHT22;1855;50.934;6.958;2023-03-14T14:13:58;8.60;99.90
3678;DHT22;1855;50.934;6.958;2023-03-14T14:16:27;9.30;99.90
3678;DHT22;1855;50.934;6.958;2023-03-14T14:18:56;9.50;98.60
3678;DHT22;1855;50.934;6.958;2023-03-14T14:21:25;9.40;93.60
3678;DHT22;1855;50.934;6.958;2023-03-14T14:23:52;9.00;96.30
3678;DHT22;1855;50.934;6.958;2023-03-14T14:26:20;8.70;95.50
3678;DHT22;1855;50.934;6.958;2023-03-14T14:28:47;8.30;94.70
3678;DHT22;1855;50.934;6.958;2023-03-14T14:31:20;8.10;98.60
3678;DHT22;1855;50.934;6.958;2023-03-14T14:33:55;8.00;96.30
3678;DHT22;1855;50.934;6.958;2023-03-14T14:36:25;7.90;96.90
3678;DHT22;1855;50.934;6.958;2023-03-14T14:38:57;7.70;96.50
3678;DHT22;1855;50.934;6.958;2023-03-14T14:41:27;7.70;99.60
3678;DHT22;1855;50.934;6.958;2023-03-14T14:43:55;7.80;99.20
3678;DHT22;1855;50.934;6.958;2023-03-14T14:46:22;7.80;98.20
3678;DHT22;1855;50.934;6.958;2023-03-14T14:48:49;7.90;99.10
3678;DHT22;1855;50.934;6.958;2023-03-14T14:51:26;8.00;98.80
3678;DHT22;1855;50.934;6.958;2023-03-14T14:54:04;8.00;97.30
3678;DHT22;1855;50.934;6.958;2023-03-14T14:56:36;7.90;95.60
3678;DHT22;1855;50.934;6.958;2023-03-14T14:59:04;7.90;96.40
3678;DHT22;1855;50.934;6.958;2023-03-14T15:01:34;7.90;96.30
3678;DHT22;1855;50.934;6.958;2023-03-14T15:04:01;8.00;95.70
3678;DHT22;1855;50.934;6.958;2023-03-14T15:06:31;7.90;95.00
3678;DHT22;1855;50.934;6.958;2023-03-14T15:08:58;8.00;95.80
3678;DHT22;1855;50.934;6.958;2023-03-14T15:11:26;8.00;95.80
3678;DHT22;1855;50.934;6.958;2023-03-14T15:13:53;8.00;96.00
3678;DHT22;1855;50.934;6.958;2023-03-14T15:16:22;8.00;95.30
3678;DHT22;1855;50.934;6.958;2023-03-14T15:18:53;8.10;95.00
3678;DHT22;1855;50.934;6.958;2023-03-14T15:21:21;8.00;94.20
3678;DHT22;1855;50.934;6.958;2023-03-14T15:23:50;8.00;93.70
3678;DHT22;1855;50.934;6.958;2023-03-14T15:26:19;8.10;92.90
3678;DHT22;1855;50.934;6.958;2023-03-14T15:28:47;8.10;93.60
3678;DHT22;1855;50.934;6.958;2023-03-14T15:31:15;8.20;93.40
3678;DHT22;1855;50.934;6.958;2023-03-14T15:33:43;8.20;92.70
3678;DHT22;1855;50.934;6.958;2023-03-14T15:36:21;8.20;94.70
3678;DHT22;1855;50.934;6.958;2023-03-14T15:38:50;8.20;91.40
3678;DHT22;1855;50.934;6.958;2023-03-14T15:41:17;8.20;92.20
3678;DHT22;1855;50.934;6.958;2023-03-14T15:43:44;8.10;91.60
3678;DHT22;1855;50.934;6.958;2023-03-14T15:46:11;8.10;91.00
3678;DHT22;1855;50.934;6.958;2023-03-14T15:48:39;8.00;91.30
3678;DHT22;1855;50.934;6.958;2023-03-14T15:51:06;8.00;89.60
3678;DHT22;1855;50.934;6.958;2023-03-14T15:53:34;7.90;89.80
3678;DHT22;1855;50.934;6.958;2023-03-14T15:56:04;7.90;90.70
3678;DHT22;1855;50.934;6.958;2023-03-14T15:58:31;7.80;90.20
3678;DHT22;1855;50.934;6.958;2023-03-14T16:00:59;7.90;90.60
3678;DHT22;1855;50.934;6.958;2023-03-14T16:03:26;7.80;91.10
3678;DHT22;1855;50.934;6.958;2023-03-14T16:05:53;7.80;91.30
3678;DHT22;1855;50.934;6.958;2023-03-14T16:08:20;7.70;91.70
3678;DHT22;1855;50.934;6.958;2023-03-14T16:10:47;7.60;92.50
3678;DHT22;1855;50.934;6.958;2023-03-14T16:13:15;7.50;93.90
3678;DHT22;1855;50.934;6.958;2023-03-14T16:15:42;7.30;94.70
3678;DHT22;1855;50.934;6.958;2023-03-14T16:18:18;7.30;95.10
3678;DHT22;1855;50.934;6.958;2023-03-14T16:20:51;7.30;95.70
3678;DHT22;1855;50.934;6.958;2023-03-14T16:23:18;7.20;95.50
3678;DHT22;1855;50.934;6.958;2023-03-14T16:25:45;7.20;96.40
3678;DHT22;1855;50.934;6.958;2023-03-14T16:28:12;7.20;97.40
3678;DHT22;1855;50.934;6.958;2023-03-14T16:30:40;7.20;96.70
3678;DHT22;1855;50.934;6.958;2023-03-14T16:33:07;7.20;96.30
3678;DHT22;1855;50.934;6.958;2023-03-14T16:35:34;7.20;95.50
3678;DHT22;1855;50.934;6.958;2023-03-14T16:38:01;7.10;95.80